createdAt,value
2019-06-07T00:02:01.946Z,9.91
2019-06-07T00:05:07.665Z,9.86
2019-06-07T00:08:22.548Z,9.83
2019-06-07T00:11:21.485Z,9.89
2019-06-07T00:14:28.245Z,9.83
2019-06-07T00:17:33.431Z,9.74
2019-06-07T00:20:38.655Z,9.69
2019-06-07T00:23:43.875Z,9.61
2019-06-07T00:26:58.323Z,9.60
2019-06-07T00:29:55.939Z,9.64
2019-06-07T00:33:01.147Z,9.69
2019-06-07T00:36:06.736Z,9.76
2019-06-07T00:39:14.463Z,9.68
2019-06-07T00:42:21.047Z,9.70
2019-06-07T00:45:25.691Z,9.66
2019-06-07T00:48:32.901Z,9.78
2019-06-07T00:51:50.108Z,9.70
2019-06-07T00:54:45.714Z,9.55
2019-06-07T00:57:50.916Z,9.41
2019-06-07T01:00:56.053Z,9.38
2019-06-07T01:04:01.236Z,9.32
2019-06-07T01:07:06.406Z,9.22
2019-06-07T01:10:13.907Z,9.31
2019-06-07T01:13:23.791Z,9.26
2019-06-07T01:16:26.675Z,9.11
2019-06-07T01:19:31.819Z,9.03
2019-06-07T01:22:36.883Z,9.02
2019-06-07T01:25:42.111Z,8.91
2019-06-07T01:28:47.389Z,8.86
2019-06-07T01:31:52.519Z,8.84
2019-06-07T01:34:57.656Z,8.86
2019-06-07T01:38:02.876Z,9.01
2019-06-07T01:41:08.043Z,8.98
2019-06-07T01:44:13.225Z,9.01
2019-06-07T01:47:21.113Z,9.04
2019-06-07T01:50:27.127Z,9.20
2019-06-07T01:53:32.226Z,9.27
2019-06-07T01:56:37.432Z,9.21
2019-06-07T01:59:42.718Z,9.18
2019-06-07T02:02:47.818Z,9.39
2019-06-07T02:05:53.034Z,9.25
2019-06-07T02:08:58.200Z,9.34
2019-06-07T02:12:24.652Z,9.42
2019-06-07T02:15:11.894Z,9.45
2019-06-07T02:18:17.078Z,9.41
2019-06-07T02:21:24.663Z,9.37
2019-06-07T02:24:32.391Z,9.53
2019-06-07T02:27:35.981Z,9.51
2019-06-07T02:30:51.035Z,9.50
2019-06-07T02:33:48.093Z,9.43
2019-06-07T02:36:53.259Z,9.43
2019-06-07T02:39:58.458Z,9.56
2019-06-07T02:43:03.641Z,9.56
2019-06-07T02:46:31.904Z,9.49
2019-06-07T02:49:36.273Z,9.52
2019-06-07T02:52:40.712Z,9.53
2019-06-07T02:56:33.822Z,9.56
2019-06-07T02:58:50.877Z,9.51
2019-06-07T03:01:56.300Z,9.46
2019-06-07T03:05:01.459Z,9.44
2019-06-07T03:08:08.293Z,9.50
2019-06-07T03:11:15.758Z,9.47
2019-06-07T03:14:22.429Z,9.53
2019-06-07T03:17:49.171Z,9.49
2019-06-07T03:21:04.907Z,9.45
2019-06-07T03:24:03.266Z,9.54
2019-06-07T03:27:35.057Z,9.64
2019-06-07T03:30:38.369Z,9.83
2019-06-07T03:33:22.748Z,9.89
2019-06-07T03:36:27.876Z,9.86
2019-06-07T03:39:33.761Z,9.63
2019-06-07T03:42:40.272Z,9.59
2019-06-07T03:45:45.373Z,9.43
2019-06-07T03:48:50.599Z,9.26
2019-06-07T03:51:55.758Z,9.39
2019-06-07T03:55:01.025Z,9.39
2019-06-07T04:01:13.306Z,9.37
2019-06-07T04:04:19.623Z,9.20
2019-06-07T04:07:24.759Z,9.41
2019-06-07T04:10:52.034Z,9.47
2019-06-07T04:13:39.841Z,9.59
2019-06-07T04:16:44.930Z,9.50
2019-06-07T04:19:50.297Z,9.58
2019-06-07T04:22:55.439Z,9.68
2019-06-07T04:26:00.641Z,9.72
2019-06-07T04:29:32.195Z,9.74
2019-06-07T04:32:12.664Z,9.50
2019-06-07T04:35:17.816Z,9.72
2019-06-07T04:38:23.583Z,9.98
2019-06-07T04:41:31.035Z,9.94
2019-06-07T04:44:41.081Z,9.90
2019-06-07T04:47:46.533Z,9.99
2019-06-07T04:50:53.208Z,9.92
2019-06-07T04:53:58.413Z,10.00
2019-06-07T04:57:03.558Z,9.93
2019-06-07T05:00:46.217Z,9.98
2019-06-07T05:03:15.877Z,10.15
2019-06-07T05:06:21.044Z,10.26
2019-06-07T05:09:26.219Z,10.29
2019-06-07T05:12:32.691Z,10.39
2019-06-07T05:15:41.707Z,10.47
2019-06-07T05:18:45.594Z,10.41
2019-06-07T05:22:03.634Z,10.44
2019-06-07T05:24:57.752Z,10.44
2019-06-07T05:28:02.862Z,10.42
2019-06-07T05:31:08.999Z,10.52
2019-06-07T05:34:14.132Z,10.60
2019-06-07T05:37:19.334Z,10.90
2019-06-07T05:40:37.312Z,10.89
2019-06-07T05:44:27.093Z,10.78
2019-06-07T05:47:32.234Z,10.95
2019-06-07T05:50:44.919Z,11.11
2019-06-07T05:53:45.975Z,11.26
2019-06-07T05:56:51.053Z,11.52
2019-06-07T05:59:56.147Z,11.79
2019-06-07T06:03:05.679Z,11.72
2019-06-07T06:06:08.156Z,12.09
2019-06-07T06:09:14.311Z,12.08
2019-06-07T06:12:34.237Z,12.57
2019-06-07T06:15:41.454Z,12.58
2019-06-07T06:18:33.568Z,12.70
2019-06-07T06:21:38.709Z,12.86
2019-06-07T06:25:17.315Z,13.38
2019-06-07T06:28:12.303Z,13.22
2019-06-07T06:30:57.737Z,13.29
2019-06-07T06:34:02.959Z,13.61
2019-06-07T06:37:08.137Z,13.66
2019-06-07T06:40:13.970Z,14.27
2019-06-07T06:43:19.195Z,14.39
2019-06-07T06:46:38.115Z,14.52
2019-06-07T06:49:31.248Z,14.56
2019-06-07T06:52:36.424Z,15.20
2019-06-07T06:55:41.590Z,15.05
2019-06-07T06:59:27.363Z,14.90
2019-06-07T07:01:53.655Z,15.34
2019-06-07T07:04:58.823Z,15.69
2019-06-07T07:08:04.177Z,16.21
2019-06-07T07:11:09.429Z,16.08
2019-06-07T07:14:14.739Z,15.88
2019-06-07T07:17:19.913Z,15.74
2019-06-07T07:20:25.592Z,15.07
2019-06-07T07:23:30.946Z,15.52
2019-06-07T07:26:36.065Z,15.37
2019-06-07T07:29:43.698Z,14.90
2019-06-07T07:32:48.953Z,15.51
2019-06-07T07:36:18.493Z,15.29
2019-06-07T07:39:05.275Z,15.41
2019-06-07T07:42:20.713Z,15.61
2019-06-07T07:45:15.830Z,15.34
2019-06-07T07:48:20.990Z,15.65
2019-06-07T07:51:26.165Z,15.66
2019-06-07T07:54:32.404Z,15.28
2019-06-07T07:57:37.610Z,15.80
2019-06-07T08:00:53.864Z,15.82
2019-06-07T08:03:50.682Z,15.91
2019-06-07T08:06:56.524Z,16.68
2019-06-07T08:10:04.142Z,16.81
2019-06-07T08:13:24.691Z,17.05
2019-06-07T08:16:18.723Z,17.14
2019-06-07T08:19:28.287Z,17.17
2019-06-07T08:22:33.479Z,16.94
2019-06-07T08:25:38.588Z,16.90
2019-06-07T08:28:43.951Z,17.77
2019-06-07T08:31:51.604Z,17.14
2019-06-07T08:35:02.202Z,18.04
2019-06-07T08:41:12.638Z,17.55
2019-06-07T08:44:23.899Z,17.48
2019-06-07T08:47:24.989Z,18.00
2019-06-07T08:50:30.391Z,18.49
2019-06-07T08:53:35.575Z,18.48
2019-06-07T08:56:41.930Z,18.06
2019-06-07T08:59:47.104Z,18.11
2019-06-07T09:02:53.184Z,18.05
2019-06-07T09:06:06.061Z,18.11
2019-06-07T09:09:07.963Z,18.34
2019-06-07T09:12:13.162Z,19.26
2019-06-07T09:15:23.509Z,19.40
2019-06-07T09:18:44.228Z,18.55
2019-06-07T09:21:32.718Z,18.70
2019-06-07T09:24:37.864Z,18.70
2019-06-07T09:27:43.102Z,19.70
2019-06-07T09:30:48.389Z,18.63
2019-06-07T09:33:53.653Z,18.42
2019-06-07T09:37:04.280Z,18.88
2019-06-07T09:40:21.629Z,18.82
2019-06-07T09:46:20.893Z,19.34
2019-06-07T09:49:32.645Z,19.57
2019-06-07T09:52:56.563Z,20.15
2019-06-07T09:55:40.086Z,20.23
2019-06-07T09:58:51.826Z,20.09
2019-06-07T10:01:52.516Z,20.16
2019-06-07T10:04:58.859Z,20.42
2019-06-07T10:08:40.301Z,20.75
2019-06-07T10:11:11.893Z,20.79
2019-06-07T10:14:17.115Z,21.04
2019-06-07T10:17:22.386Z,21.26
2019-06-07T10:20:27.610Z,21.62
2019-06-07T10:23:32.900Z,22.29
2019-06-07T10:26:38.206Z,22.03
2019-06-07T10:29:43.363Z,21.98
2019-06-07T10:32:52.022Z,22.27
2019-06-07T10:35:55.597Z,21.89
2019-06-07T10:39:00.867Z,21.99
2019-06-07T10:42:09.536Z,21.67
2019-06-07T10:45:14.844Z,21.27
2019-06-07T10:51:23.855Z,21.62
2019-06-07T10:54:30.813Z,21.36
2019-06-07T10:57:36.233Z,21.32
2019-06-07T11:00:41.594Z,21.54
2019-06-07T11:03:46.803Z,21.68
2019-06-07T11:06:51.975Z,22.16
2019-06-07T11:10:07.132Z,21.87
2019-06-07T11:13:04.218Z,22.56
2019-06-07T11:16:11.048Z,22.29
2019-06-07T11:19:18.497Z,22.92
2019-06-07T11:22:23.488Z,22.98
2019-06-07T11:25:28.645Z,22.94
2019-06-07T11:28:33.987Z,22.60
2019-06-07T11:31:39.211Z,22.47
2019-06-07T11:34:44.394Z,22.74
2019-06-07T11:37:49.638Z,22.83
2019-06-07T11:40:54.819Z,23.38
2019-06-07T11:43:59.967Z,23.22
2019-06-07T11:47:06.381Z,22.47
2019-06-07T11:50:11.992Z,22.92
2019-06-07T11:53:17.258Z,23.03
2019-06-07T11:56:22.615Z,22.92
2019-06-07T11:59:27.932Z,23.44
2019-06-07T12:02:33.113Z,23.38
2019-06-07T12:05:38.296Z,22.86
2019-06-07T12:08:43.527Z,23.20
2019-06-07T12:11:48.682Z,23.40
2019-06-07T12:14:54.022Z,23.31
2019-06-07T12:17:59.245Z,23.57
2019-06-07T12:21:04.538Z,24.01
2019-06-07T12:24:10.351Z,24.53
2019-06-07T12:27:16.715Z,24.97
2019-06-07T12:30:27.230Z,25.06
2019-06-07T12:33:28.994Z,24.73
2019-06-07T12:36:34.352Z,25.07
2019-06-07T12:39:39.516Z,25.39
2019-06-07T12:42:44.711Z,24.80
2019-06-07T12:45:51.240Z,25.03
2019-06-07T12:48:56.604Z,24.75
2019-06-07T12:52:01.855Z,25.00
2019-06-07T12:55:07.239Z,24.78
2019-06-07T12:58:13.729Z,25.68
2019-06-07T13:01:20.846Z,25.23
2019-06-07T13:04:27.663Z,25.25
2019-06-07T13:07:33.055Z,24.89
2019-06-07T13:10:38.204Z,24.69
2019-06-07T13:13:43.408Z,25.63
2019-06-07T13:16:48.652Z,25.72
2019-06-07T13:19:53.962Z,25.59
2019-06-07T13:22:59.333Z,25.95
2019-06-07T13:26:04.767Z,26.19
2019-06-07T13:29:09.957Z,26.23
2019-06-07T13:32:15.636Z,26.18
2019-06-07T13:35:23.320Z,25.87
2019-06-07T13:38:29.147Z,25.71
2019-06-07T13:41:42.631Z,26.20
2019-06-07T13:44:41.497Z,25.84
2019-06-07T13:47:46.841Z,26.34
2019-06-07T13:50:52.054Z,26.87
2019-06-07T13:53:57.368Z,27.01
2019-06-07T13:57:03.300Z,26.96
2019-06-07T14:00:11.246Z,26.45
2019-06-07T14:03:20.314Z,26.60
2019-06-07T14:06:25.225Z,26.46
2019-06-07T14:09:30.824Z,26.86
2019-06-07T14:12:36.172Z,26.51
2019-06-07T14:15:41.349Z,26.86
2019-06-07T14:18:46.612Z,27.07
2019-06-07T14:21:51.850Z,26.76
2019-06-07T14:24:57.046Z,26.95
2019-06-07T14:28:02.201Z,26.61
2019-06-07T14:31:07.579Z,26.54
2019-06-07T14:34:12.919Z,26.99
2019-06-07T14:37:18.503Z,27.36
2019-06-07T14:40:25.317Z,27.28
2019-06-07T14:43:31.768Z,27.67
2019-06-07T14:46:37.317Z,27.38
2019-06-07T14:49:42.673Z,27.23
2019-06-07T14:52:47.991Z,27.21
2019-06-07T14:55:53.193Z,27.50
2019-06-07T14:58:58.590Z,27.29
2019-06-07T15:02:03.779Z,27.49
2019-06-07T15:05:09.428Z,27.16
2019-06-07T15:08:14.772Z,27.21
2019-06-07T15:11:20.027Z,26.97
2019-06-07T15:14:25.301Z,27.48
2019-06-07T15:17:31.286Z,27.63
2019-06-07T15:20:38.362Z,27.94
2019-06-07T15:23:43.855Z,28.24
2019-06-07T15:26:49.200Z,28.02
2019-06-07T15:29:54.534Z,27.71
2019-06-07T15:33:00.087Z,27.66
2019-06-07T15:36:07.007Z,27.42
2019-06-07T15:39:12.407Z,28.01
2019-06-07T15:42:17.642Z,28.01
2019-06-07T15:45:22.891Z,28.14
2019-06-07T15:48:28.149Z,28.25
2019-06-07T15:51:34.474Z,28.04
2019-06-07T15:54:40.702Z,28.30
2019-06-07T15:57:46.088Z,28.37
2019-06-07T16:00:51.394Z,28.18
2019-06-07T16:03:56.577Z,28.24
2019-06-07T16:07:01.854Z,28.32
2019-06-07T16:10:07.958Z,28.12
2019-06-07T16:13:13.154Z,28.38
2019-06-07T16:16:18.623Z,28.96
2019-06-07T16:19:23.789Z,28.77
2019-06-07T16:22:28.932Z,28.71
2019-06-07T16:25:34.176Z,28.91
2019-06-07T16:28:40.444Z,29.07
2019-06-07T16:31:45.867Z,29.68
2019-06-07T16:34:51.160Z,29.77
2019-06-07T16:37:56.419Z,29.27
2019-06-07T16:41:01.667Z,28.62
2019-06-07T16:44:06.991Z,28.17
2019-06-07T16:47:12.327Z,28.15
2019-06-07T16:50:18.000Z,27.88
2019-06-07T16:53:23.310Z,27.57
2019-06-07T16:56:28.475Z,27.25
2019-06-07T16:59:33.801Z,27.01
2019-06-07T17:02:40.171Z,26.79
2019-06-07T17:05:48.893Z,26.25
2019-06-07T17:08:52.418Z,26.18
2019-06-07T17:11:57.645Z,26.03
2019-06-07T17:15:03.075Z,25.62
2019-06-07T17:18:08.570Z,25.49
2019-06-07T17:21:14.312Z,25.37
2019-06-07T17:24:20.120Z,25.34
2019-06-07T17:27:25.354Z,24.97
2019-06-07T17:30:30.512Z,24.85
2019-06-07T17:33:35.874Z,24.97
2019-06-07T17:36:42.316Z,24.93
2019-06-07T17:39:48.711Z,24.99
2019-06-07T17:42:55.170Z,24.93
2019-06-07T17:46:00.471Z,24.92
2019-06-07T17:49:05.904Z,24.85
2019-06-07T17:52:11.288Z,24.48
2019-06-07T17:55:16.861Z,23.92
2019-06-07T17:58:22.203Z,23.55
2019-06-07T18:01:40.745Z,23.19
2019-06-07T18:04:34.958Z,23.40
2019-06-07T18:07:40.394Z,23.54
2019-06-07T18:10:46.156Z,23.58
2019-06-07T18:14:09.636Z,23.52
2019-06-07T18:16:59.420Z,23.59
2019-06-07T18:20:05.669Z,23.38
2019-06-07T18:23:12.600Z,23.10
2019-06-07T18:26:17.898Z,22.30
2019-06-07T18:29:23.072Z,21.37
2019-06-07T18:32:28.297Z,20.71
2019-06-07T18:35:33.629Z,20.11
2019-06-07T18:38:40.718Z,19.90
2019-06-07T18:41:47.007Z,19.02
2019-06-07T18:44:53.128Z,19.02
2019-06-07T18:47:58.494Z,18.75
2019-06-07T18:51:03.762Z,18.66
2019-06-07T18:54:09.037Z,18.36
2019-06-07T18:57:14.280Z,18.14
2019-06-07T19:00:20.425Z,18.07
2019-06-07T19:03:25.813Z,17.88
2019-06-07T19:06:31.211Z,17.60
2019-06-07T19:09:36.682Z,17.18
2019-06-07T19:12:42.120Z,16.72
2019-06-07T19:15:47.498Z,16.46
2019-06-07T19:18:53.712Z,16.07
2019-06-07T19:22:00.159Z,15.44
2019-06-07T19:25:07.149Z,14.89
2019-06-07T19:28:12.361Z,14.73
2019-06-07T19:31:17.529Z,14.55
2019-06-07T19:34:22.795Z,14.52
2019-06-07T19:37:28.054Z,14.50
2019-06-07T19:40:33.305Z,14.49
2019-06-07T19:43:38.611Z,14.54
2019-06-07T19:46:43.819Z,14.60
2019-06-07T19:49:49.075Z,14.59
2019-06-07T19:52:55.018Z,14.65
2019-06-07T19:56:01.461Z,14.52
2019-06-07T19:59:07.901Z,14.25
2019-06-07T20:02:13.300Z,13.89
2019-06-07T20:05:18.886Z,13.67
2019-06-07T20:08:24.219Z,13.50
2019-06-07T20:11:29.628Z,13.46
2019-06-07T20:14:34.864Z,13.28
2019-06-07T20:17:40.235Z,13.07
2019-06-07T20:20:45.635Z,13.05
2019-06-07T20:23:50.870Z,13.03
2019-06-07T20:26:56.241Z,12.98
2019-06-07T20:30:02.422Z,12.91
2019-06-07T20:33:14.645Z,12.93
2019-06-07T20:36:19.971Z,12.89
2019-06-07T20:39:25.183Z,12.88
2019-06-07T20:42:30.451Z,12.85
2019-06-07T20:45:35.759Z,12.80
2019-06-07T20:48:41.108Z,12.85
2019-06-07T20:51:46.381Z,12.72
2019-06-07T20:54:51.694Z,12.81
2019-06-07T20:57:59.098Z,12.85
2019-06-07T21:01:04.786Z,12.83
2019-06-07T21:04:10.335Z,13.01
2019-06-07T21:07:15.727Z,12.94
2019-06-07T21:10:21.130Z,13.00
2019-06-07T21:13:26.452Z,12.83
2019-06-07T21:16:31.822Z,12.79
2019-06-07T21:19:37.042Z,12.88
2019-06-07T21:22:42.376Z,12.86
2019-06-07T21:25:47.708Z,12.80
2019-06-07T21:28:53.037Z,12.86
2019-06-07T21:31:58.302Z,12.88
2019-06-07T21:35:03.905Z,12.90
2019-06-07T21:38:09.979Z,12.91
2019-06-07T21:41:15.314Z,12.96
2019-06-07T21:44:20.622Z,12.86
2019-06-07T21:47:25.958Z,12.90
2019-06-07T21:50:31.436Z,12.95
2019-06-07T21:53:36.918Z,12.88
2019-06-07T21:56:42.228Z,12.88
2019-06-07T21:59:47.526Z,12.91
2019-06-07T22:02:52.855Z,12.83
2019-06-07T22:05:58.145Z,12.81
2019-06-07T22:09:04.001Z,12.86
2019-06-07T22:12:10.134Z,12.77
2019-06-07T22:15:32.100Z,12.70
2019-06-07T22:18:23.853Z,12.71
2019-06-07T22:21:29.208Z,12.70
2019-06-07T22:24:34.603Z,12.75
2019-06-07T22:27:40.917Z,12.83
2019-06-07T22:30:46.270Z,12.75
2019-06-07T22:33:51.628Z,12.73
2019-06-07T22:36:56.900Z,12.78
2019-06-07T22:40:02.234Z,12.75
2019-06-07T22:43:07.675Z,12.78
2019-06-07T22:46:13.106Z,12.81
2019-06-07T22:49:19.617Z,12.74
2019-06-07T22:52:24.937Z,12.81
2019-06-07T22:55:30.243Z,12.97
2019-06-07T22:58:35.546Z,13.02
2019-06-07T23:01:40.923Z,12.93
2019-06-07T23:04:46.265Z,12.91
2019-06-07T23:07:51.644Z,12.87
2019-06-07T23:10:56.870Z,12.88
2019-06-07T23:14:02.170Z,12.79
2019-06-07T23:17:07.468Z,12.82
2019-06-07T23:20:13.712Z,12.69
2019-06-07T23:23:20.019Z,12.71
2019-06-07T23:26:25.418Z,12.64
2019-06-07T23:29:30.778Z,12.53
2019-06-07T23:32:36.031Z,12.54
2019-06-07T23:35:41.323Z,12.64
2019-06-07T23:38:46.570Z,12.61
2019-06-07T23:41:51.835Z,12.50
2019-06-07T23:44:57.130Z,12.49
2019-06-07T23:48:02.436Z,12.46
2019-06-07T23:51:07.739Z,12.38
2019-06-07T23:54:13.754Z,12.38
2019-06-07T23:57:20.839Z,12.32
